createdAt,value
2019-03-27T03:27:18.697Z,27.00
2019-03-27T03:28:18.484Z,39.50
2019-03-27T03:29:18.619Z,41.00
2019-03-27T03:30:18.708Z,41.60
2019-03-27T03:31:18.612Z,40.50
2019-03-27T03:32:18.659Z,42.90
2019-03-27T03:33:18.623Z,36.80
2019-03-27T03:34:18.657Z,41.00
2019-03-27T03:35:18.631Z,37.70
2019-03-27T03:36:18.765Z,42.40
2019-03-27T03:37:19.844Z,38.40
2019-03-27T03:38:18.753Z,38.60
2019-03-27T03:39:18.583Z,38.40
2019-03-27T03:40:18.456Z,42.10
2019-03-27T03:41:18.843Z,40.90
2019-03-27T03:42:18.173Z,39.90
2019-03-27T03:43:18.102Z,39.40
2019-03-27T03:44:18.098Z,40.50
2019-03-27T03:45:18.100Z,39.20
2019-03-27T03:46:18.127Z,38.70
2019-03-27T03:47:18.159Z,40.40
2019-03-27T03:48:18.189Z,38.20
2019-03-27T03:49:18.149Z,41.10
2019-03-27T03:50:18.217Z,45.50
2019-03-27T03:51:18.171Z,36.20
2019-03-27T03:52:18.202Z,35.90
2019-03-27T03:53:18.254Z,37.80
2019-03-27T03:54:18.221Z,37.30
2019-03-27T03:55:18.255Z,38.10
2019-03-27T03:56:18.292Z,38.60
2019-03-27T03:57:18.248Z,33.40
2019-03-27T03:58:18.268Z,36.10
2019-03-27T03:59:18.272Z,38.30
2019-03-27T04:00:18.322Z,37.30
2019-03-27T04:01:18.360Z,38.30
2019-03-27T04:02:18.296Z,37.20
2019-03-27T04:03:18.310Z,39.10
2019-03-27T04:04:18.366Z,37.60
2019-03-27T04:05:18.337Z,40.10
2019-03-27T04:06:18.347Z,35.10
2019-03-27T04:07:18.379Z,38.50
2019-03-27T04:08:18.371Z,36.60
2019-03-27T04:09:18.457Z,37.40
2019-03-27T04:10:18.424Z,38.90
2019-03-27T04:11:18.401Z,41.90
2019-03-27T04:12:18.464Z,41.80
2019-03-27T04:13:18.459Z,39.60
2019-03-27T04:14:18.434Z,42.80
2019-03-27T04:15:18.472Z,35.50
2019-03-27T04:16:18.461Z,36.90
2019-03-27T04:17:18.480Z,38.00
2019-03-27T04:18:18.489Z,38.70
2019-03-27T04:19:18.528Z,39.20
2019-03-27T04:20:18.509Z,34.50
2019-03-27T04:21:18.519Z,36.40
2019-03-27T04:22:18.558Z,35.80
2019-03-27T04:23:18.547Z,38.10
2019-03-27T04:24:18.577Z,34.20
2019-03-27T04:25:18.604Z,34.60
2019-03-27T04:26:18.608Z,35.20
2019-03-27T04:27:18.629Z,33.90
2019-03-27T04:28:18.602Z,31.80
2019-03-27T04:29:18.613Z,30.90
2019-03-27T04:30:18.673Z,32.70
2019-03-27T04:31:18.675Z,26.30
2019-03-27T04:32:18.665Z,28.60
2019-03-27T04:33:18.704Z,29.00
2019-03-27T04:34:18.691Z,30.70
2019-03-27T04:35:18.688Z,29.00
2019-03-27T04:36:18.804Z,30.80
2019-03-27T04:37:18.719Z,32.40
2019-03-27T04:38:18.747Z,30.60
2019-03-27T04:39:18.741Z,28.50
2019-03-27T04:40:18.745Z,29.40
2019-03-27T04:41:18.782Z,26.50
2019-03-27T04:42:18.773Z,32.00
2019-03-27T04:43:18.787Z,30.30
2019-03-27T04:44:18.856Z,27.50
2019-03-27T04:45:18.809Z,27.00
2019-03-27T04:46:18.819Z,32.10
2019-03-27T04:47:31.571Z,31.20
2019-03-27T04:48:18.851Z,31.90
2019-03-27T04:49:18.856Z,23.50
2019-03-27T04:50:18.899Z,25.80
2019-03-27T04:51:18.914Z,27.10
2019-03-27T04:52:18.957Z,26.20
2019-03-27T04:53:19.024Z,29.00
2019-03-27T04:54:18.918Z,31.20
2019-03-27T04:55:18.936Z,27.30
2019-03-27T04:56:19.015Z,28.40
2019-03-27T04:57:18.992Z,31.80
2019-03-27T04:58:18.974Z,31.80
2019-03-27T04:59:19.055Z,26.30
2019-03-27T05:00:19.042Z,31.30
2019-03-27T05:01:19.050Z,26.60
2019-03-27T05:02:19.034Z,31.20
2019-03-27T05:03:19.061Z,26.20
2019-03-27T05:04:19.049Z,27.90
2019-03-27T05:05:19.090Z,26.20
2019-03-27T05:06:19.067Z,31.10
2019-03-27T05:07:19.080Z,32.10
2019-03-27T05:08:19.180Z,28.10
2019-03-27T05:09:19.114Z,26.10
2019-03-27T05:10:19.166Z,29.80
2019-03-27T05:11:19.187Z,31.30
2019-03-27T05:12:19.173Z,34.90
2019-03-27T05:13:19.162Z,31.80
2019-03-27T05:14:19.235Z,31.00
2019-03-27T05:15:19.178Z,33.10
2019-03-27T05:16:19.199Z,39.10
2019-03-27T05:17:19.219Z,33.00
2019-03-27T05:18:19.251Z,37.60
2019-03-27T05:19:19.291Z,28.00
2019-03-27T05:20:19.269Z,36.90
2019-03-27T05:21:19.267Z,31.80
2019-03-27T05:22:19.308Z,31.80
2019-03-27T05:23:19.281Z,33.60
2019-03-27T05:24:19.395Z,35.70
2019-03-27T05:25:19.310Z,31.60
2019-03-27T05:26:19.355Z,31.60
2019-03-27T05:27:19.366Z,27.80
2019-03-27T05:28:19.350Z,30.80
2019-03-27T05:29:19.407Z,31.80
2019-03-27T05:30:19.435Z,31.00
2019-03-27T05:31:19.384Z,29.50
2019-03-27T05:32:19.412Z,29.70
2019-03-27T05:33:19.413Z,30.60
2019-03-27T05:34:19.474Z,36.60
2019-03-27T05:35:19.443Z,31.40
2019-03-27T05:36:19.451Z,30.00
2019-03-27T05:37:19.458Z,33.60
2019-03-27T05:38:19.474Z,35.40
2019-03-27T05:39:19.484Z,35.90
2019-03-27T05:40:19.502Z,36.40
2019-03-27T05:41:19.575Z,33.00
2019-03-27T05:42:19.555Z,32.80
2019-03-27T05:43:19.559Z,36.70
2019-03-27T05:44:19.615Z,33.40
2019-03-27T05:45:19.569Z,35.40
2019-03-27T05:46:19.608Z,30.90
2019-03-27T05:47:19.585Z,35.50
2019-03-27T05:48:19.600Z,32.50
2019-03-27T05:49:19.642Z,37.10
2019-03-27T05:50:19.682Z,34.50
2019-03-27T05:51:19.638Z,34.30
2019-03-27T05:52:19.713Z,38.00
2019-03-27T05:53:19.701Z,33.10
2019-03-27T05:54:19.676Z,36.00
2019-03-27T05:55:19.753Z,37.00
2019-03-27T05:56:19.705Z,37.00
2019-03-27T05:57:19.716Z,35.30
2019-03-27T05:58:19.742Z,34.40
2019-03-27T05:59:19.775Z,36.50
2019-03-27T06:00:19.779Z,34.10
2019-03-27T06:01:29.807Z,34.90
2019-03-27T06:03:24.735Z,31.50
2019-03-27T06:04:24.782Z,35.80
2019-03-27T06:05:33.501Z,34.30
2019-03-27T06:07:29.379Z,34.70
2019-03-27T06:08:29.294Z,33.00
2019-03-27T06:09:29.387Z,37.30
2019-03-27T06:10:29.163Z,38.80
2019-03-27T06:11:29.452Z,35.70
2019-03-27T06:12:30.585Z,31.90
2019-03-27T06:13:29.300Z,30.70
